Terminal Aerodrome Forecast
Issued by NWS Goodland, KS

Home | Current Version | Previous Version | Text Only | Print | Product List | Glossary On
Versions: 1 2 3 4 5 6 7 8 9 10 11 12 13 14 15 16 17 18 19 20 21 22 23
000
FTUS43 KGLD 180933 AAA
TAFGLD
TAF AMD
KGLD 180933Z 1810/1906 VRB05KT 6SM BR SCT015
      TEMPO 1810/1814 3SM BR BKN015
     FM181600 23006KT P6SM SCT020 BKN090
     FM182000 18009KT 6SM -TSRA BKN045CB
     FM190200 33010KT P6SM SCT050 BKN120=

USA.gov is the U.S. government's official web portal to all federal, state and local government web resources and services.